Time;durP1;ratioP1;P1;durP2;ratioP2;P2;SDS_P1;SDS_P2;PMS_P1;PMS_P2;Temp;Humidity;BMP_temperature;BMP_pressure;BME280_temperature;BME280_humidity;BME280_pressure;Samples;Min_cycle;Max_cycle;Signal;HPM_P1;HPM_P2
2023/09/20 00:01:27;;;;;;;;;;;21.70;1.00;;;;;;4918450;29;20406;-51
2023/09/20 00:03:54;;;;;;;;;;;21.70;1.00;;;;;;4913371;29;19983;-53
2023/09/20 00:06:21;;;;;;;;;;;21.70;1.00;;;;;;4898955;29;19928;-53
2023/09/20 00:08:47;;;;;;;;;;;21.70;1.00;;;;;;4899449;29;19970;-49
2023/09/20 00:11:15;;;;;;;;;;;21.70;1.00;;;;;;4899505;29;19935;-53
2023/09/20 00:13:42;;;;;;;;;;;21.70;1.00;;;;;;4910526;29;19927;-49
2023/09/20 00:16:09;;;;;;;;;;;21.70;1.00;;;;;;4917716;29;20461;-52
2023/09/20 00:18:37;;;;;;;;;;;21.70;1.00;;;;;;4918287;29;20038;-51
2023/09/20 00:21:04;;;;;;;;;;;21.70;1.00;;;;;;4918558;29;19931;-49
2023/09/20 00:23:30;;;;;;;;;;;21.70;1.00;;;;;;4917964;29;20388;-52
2023/09/20 00:25:57;;;;;;;;;;;21.70;1.00;;;;;;4917966;29;20420;-53
2023/09/20 00:28:24;;;;;;;;;;;21.70;1.00;;;;;;4917926;29;19933;-53
2023/09/20 00:30:54;;;;;;;;;;;21.70;1.00;;;;;;4901020;29;20017;-53
2023/09/20 00:33:21;;;;;;;;;;;21.70;1.00;;;;;;4917857;29;19935;-54
2023/09/20 00:35:48;;;;;;;;;;;21.70;1.00;;;;;;4917792;29;19950;-53
2023/09/20 00:38:16;;;;;;;;;;;21.70;1.00;;;;;;4900869;29;19927;-51
2023/09/20 00:40:43;;;;;;;;;;;21.70;1.00;;;;;;4900967;29;20280;-52
2023/09/20 00:43:10;;;;;;;;;;;21.70;1.00;;;;;;4897669;29;20387;-53
2023/09/20 00:45:40;;;;;;;;;;;21.70;1.00;;;;;;4899850;29;19927;-53
2023/09/20 00:48:08;;;;;;;;;;;21.70;1.00;;;;;;4900758;29;19931;-50
2023/09/20 00:50:35;;;;;;;;;;;21.70;1.00;;;;;;4900577;29;19927;-53
2023/09/20 00:53:06;;;;;;;;;;;21.70;1.00;;;;;;4917671;29;19933;-53
2023/09/20 00:55:35;;;;;;;;;;;21.70;1.00;;;;;;4917257;29;20026;-53
2023/09/20 00:58:07;;;;;;;;;;;21.70;1.00;;;;;;4897470;29;19928;-51
2023/09/20 01:00:37;;;;;;;;;;;21.70;1.00;;;;;;4899435;29;19927;-53
2023/09/20 01:03:04;;;;;;;;;;;21.70;1.00;;;;;;4917617;29;19931;-48
2023/09/20 01:05:36;;;;;;;;;;;21.70;1.00;;;;;;4916924;29;19959;-51
2023/09/20 01:08:04;;;;;;;;;;;21.70;1.00;;;;;;4917269;29;19931;-52
2023/09/20 01:10:31;;;;;;;;;;;21.70;1.00;;;;;;4917426;29;20462;-53
2023/09/20 01:12:59;;;;;;;;;;;21.70;1.00;;;;;;4897177;29;20034;-48
2023/09/20 01:15:27;;;;;;;;;;;21.70;1.00;;;;;;4897372;29;19934;-52
2023/09/20 01:17:55;;;;;;;;;;;21.70;1.00;;;;;;4897116;29;19928;-53
2023/09/20 01:20:24;;;;;;;;;;;21.70;1.00;;;;;;4897120;29;19927;-53
2023/09/20 01:22:51;;;;;;;;;;;21.70;1.00;;;;;;4917026;29;19927;-48
2023/09/20 01:25:22;;;;;;;;;;;21.70;1.00;;;;;;4916633;29;19927;-52
2023/09/20 01:27:51;;;;;;;;;;;21.70;1.00;;;;;;4899476;29;19931;-50
2023/09/20 01:30:18;;;;;;;;;;;21.70;1.00;;;;;;4899931;29;19927;-50
2023/09/20 01:32:44;;;;;;;;;;;21.70;1.00;;;;;;4916916;29;20066;-50
2023/09/20 01:35:11;;;;;;;;;;;21.70;1.00;;;;;;4899542;29;20018;-51
2023/09/20 01:37:38;;;;;;;;;;;21.70;1.00;;;;;;4899662;29;19931;-52
2023/09/20 01:40:14;;;;;;;;;;;21.70;1.00;;;;;;4899857;29;19969;-48
2023/09/20 01:42:42;;;;;;;;;;;21.70;1.00;;;;;;4899490;29;20421;-51
2023/09/20 01:45:14;;;;;;;;;;;21.70;1.00;;;;;;4899300;29;20014;-49
2023/09/20 01:47:45;;;;;;;;;;;21.70;1.00;;;;;;4916771;29;19935;-49
2023/09/20 01:50:12;;;;;;;;;;;21.70;1.00;;;;;;4916534;29;19927;-50
2023/09/20 01:52:39;;;;;;;;;;;21.70;1.00;;;;;;4898772;29;19975;-48
2023/09/20 01:55:11;;;;;;;;;;;21.70;1.00;;;;;;4899347;29;19926;-52
2023/09/20 01:57:38;;;;;;;;;;;21.70;1.00;;;;;;4898816;29;19927;-49
2023/09/20 02:00:16;;;;;;;;;;;21.70;1.00;;;;;;4899599;29;19927;-50
2023/09/20 02:02:44;;;;;;;;;;;21.70;1.00;;;;;;4899561;29;20268;-52
2023/09/20 02:05:16;;;;;;;;;;;21.60;1.00;;;;;;4895838;29;19932;-51
2023/09/20 02:07:47;;;;;;;;;;;21.70;1.00;;;;;;4898955;29;19962;-49
2023/09/20 02:10:16;;;;;;;;;;;21.70;1.00;;;;;;4899409;29;19967;-52
2023/09/20 02:12:47;;;;;;;;;;;21.70;1.00;;;;;;4899268;29;20296;-52
2023/09/20 02:15:14;;;;;;;;;;;21.70;1.00;;;;;;4895686;29;19975;-53
2023/09/20 02:17:41;;;;;;;;;;;21.60;1.00;;;;;;4898420;29;19933;-51
2023/09/20 02:20:12;;;;;;;;;;;21.70;1.00;;;;;;4899162;29;19933;-49
2023/09/20 02:22:39;;;;;;;;;;;21.60;1.00;;;;;;4916187;29;19990;-51
2023/09/20 02:25:11;;;;;;;;;;;21.70;1.00;;;;;;4895748;29;20014;-49
2023/09/20 02:27:39;;;;;;;;;;;21.60;1.00;;;;;;4913521;29;20029;-52
2023/09/20 02:30:06;;;;;;;;;;;21.60;1.00;;;;;;4915975;29;20370;-51
2023/09/20 02:32:34;;;;;;;;;;;21.60;1.00;;;;;;4915991;29;19934;-51
2023/09/20 02:35:03;;;;;;;;;;;21.60;1.00;;;;;;4916216;29;20364;-48
2023/09/20 02:37:30;;;;;;;;;;;21.60;1.00;;;;;;4915804;29;19975;-52
2023/09/20 02:39:57;;;;;;;;;;;21.60;1.00;;;;;;4918580;29;19927;-53
2023/09/20 02:42:26;;;;;;;;;;;21.60;1.00;;;;;;4902893;29;20018;-50
2023/09/20 02:44:53;;;;;;;;;;;21.60;1.00;;;;;;4903099;29;19961;-51
2023/09/20 02:47:24;;;;;;;;;;;21.60;1.00;;;;;;4902452;29;19931;-49
2023/09/20 02:49:51;;;;;;;;;;;21.60;1.00;;;;;;4902661;29;19935;-50
2023/09/20 02:52:18;;;;;;;;;;;21.60;1.00;;;;;;4919738;29;19927;-52
2023/09/20 02:54:45;;;;;;;;;;;21.60;1.00;;;;;;4919607;29;19927;-48
2023/09/20 02:57:12;;;;;;;;;;;21.60;1.00;;;;;;4902260;29;19927;-52
2023/09/20 02:59:42;;;;;;;;;;;21.60;1.00;;;;;;4901513;29;20017;-52
2023/09/20 03:02:10;;;;;;;;;;;21.60;1.00;;;;;;4902645;29;19927;-53
2023/09/20 03:04:37;;;;;;;;;;;21.60;1.00;;;;;;4902442;29;19928;-51
2023/09/20 03:07:06;;;;;;;;;;;21.60;1.00;;;;;;4898847;29;19931;-51
2023/09/20 03:09:36;;;;;;;;;;;21.60;1.00;;;;;;4900433;29;19928;-51
2023/09/20 03:12:06;;;;;;;;;;;21.60;1.00;;;;;;4902522;29;19927;-51
2023/09/20 03:14:39;;;;;;;;;;;21.60;1.00;;;;;;4902102;29;20307;-50
2023/09/20 03:17:06;;;;;;;;;;;21.60;1.00;;;;;;4902142;29;19934;-51
2023/09/20 03:19:35;;;;;;;;;;;21.60;1.00;;;;;;4902225;29;20306;-48
2023/09/20 03:22:02;;;;;;;;;;;21.60;1.00;;;;;;4902240;29;20015;-54
2023/09/20 03:24:30;;;;;;;;;;;21.60;1.00;;;;;;4902115;29;19962;-53
2023/09/20 03:26:57;;;;;;;;;;;21.60;1.00;;;;;;4901740;29;20014;-54
2023/09/20 03:29:25;;;;;;;;;;;21.60;1.00;;;;;;4902016;29;19931;-53
2023/09/20 03:31:53;;;;;;;;;;;21.60;1.00;;;;;;4919151;29;19927;-53
2023/09/20 03:34:20;;;;;;;;;;;21.60;1.00;;;;;;4898947;29;19998;-53
2023/09/20 03:36:47;;;;;;;;;;;21.60;1.00;;;;;;4918268;29;19931;-51
2023/09/20 03:39:15;;;;;;;;;;;21.60;1.00;;;;;;4898722;29;19983;-52
2023/09/20 03:41:42;;;;;;;;;;;21.60;1.00;;;;;;4916649;29;19927;-51
2023/09/20 03:44:12;;;;;;;;;;;21.60;1.00;;;;;;4899016;29;20347;-53
2023/09/20 03:46:40;;;;;;;;;;;21.60;1.00;;;;;;4899876;29;19927;-53
2023/09/20 03:49:07;;;;;;;;;;;21.60;1.00;;;;;;4898387;29;19927;-53
2023/09/20 03:51:34;;;;;;;;;;;21.60;1.00;;;;;;4899214;29;19927;-53
2023/09/20 03:54:02;;;;;;;;;;;21.60;1.00;;;;;;4901723;29;19938;-53
2023/09/20 03:56:29;;;;;;;;;;;21.60;1.00;;;;;;4898497;29;19927;-53
2023/09/20 03:58:57;;;;;;;;;;;21.60;1.00;;;;;;4891228;29;20336;-51
2023/09/20 04:01:24;;;;;;;;;;;21.60;1.00;;;;;;4883107;29;19927;-53
2023/09/20 04:03:52;;;;;;;;;;;21.60;1.00;;;;;;4893466;29;19982;-53
2023/09/20 04:06:19;;;;;;;;;;;21.60;1.00;;;;;;4903420;29;19970;-53
2023/09/20 04:08:45;;;;;;;;;;;21.60;1.00;;;;;;4899608;29;19928;-53
2023/09/20 04:11:12;;;;;;;;;;;21.60;1.00;;;;;;4882820;29;19934;-53
2023/09/20 04:13:40;;;;;;;;;;;21.60;1.00;;;;;;4898247;29;19934;-54
2023/09/20 04:16:07;;;;;;;;;;;21.60;1.00;;;;;;4898113;29;20003;-53
2023/09/20 04:18:34;;;;;;;;;;;21.60;1.00;;;;;;4898984;29;19927;-54
2023/09/20 04:21:00;;;;;;;;;;;21.60;1.00;;;;;;4901571;29;19931;-54
2023/09/20 04:23:28;;;;;;;;;;;21.60;1.00;;;;;;4882669;29;19984;-54
2023/09/20 04:25:55;;;;;;;;;;;21.60;1.00;;;;;;4900741;29;19927;-53
2023/09/20 04:28:22;;;;;;;;;;;21.60;1.00;;;;;;4901154;29;19931;-53
2023/09/20 04:30:49;;;;;;;;;;;21.60;1.00;;;;;;4901072;29;20444;-49
2023/09/20 04:33:16;;;;;;;;;;;21.60;1.00;;;;;;4904703;29;20018;-52
2023/09/20 04:35:47;;;;;;;;;;;21.60;1.00;;;;;;4906145;29;20041;-51
2023/09/20 04:38:18;;;;;;;;;;;21.60;1.00;;;;;;4902574;29;20013;-53
2023/09/20 04:40:45;;;;;;;;;;;21.60;1.00;;;;;;4898358;29;19927;-48
2023/09/20 04:43:14;;;;;;;;;;;21.60;1.00;;;;;;4882044;29;19931;-49
2023/09/20 04:45:43;;;;;;;;;;;21.60;1.00;;;;;;4881539;29;19979;-48
2023/09/20 04:48:10;;;;;;;;;;;21.60;1.00;;;;;;4886330;29;19928;-48
2023/09/20 04:50:36;;;;;;;;;;;21.60;1.00;;;;;;4916052;29;20671;-50
2023/09/20 04:53:04;;;;;;;;;;;21.60;1.00;;;;;;4897361;29;19969;-49
2023/09/20 04:55:34;;;;;;;;;;;21.60;1.00;;;;;;4906554;29;19933;-49
2023/09/20 04:58:01;;;;;;;;;;;21.60;1.00;;;;;;4889198;29;20407;-48
2023/09/20 05:00:37;;;;;;;;;;;21.60;1.00;;;;;;4899623;29;19934;-50
2023/09/20 05:03:07;;;;;;;;;;;21.60;1.00;;;;;;4896495;29;19928;-49
2023/09/20 05:05:35;;;;;;;;;;;21.60;1.00;;;;;;4914500;29;19928;-49
2023/09/20 05:08:04;;;;;;;;;;;21.60;1.00;;;;;;4917320;29;19927;-49
2023/09/20 05:10:32;;;;;;;;;;;21.60;1.00;;;;;;4897143;29;19964;-50
2023/09/20 05:13:00;;;;;;;;;;;21.60;1.00;;;;;;4900373;29;19950;-49
2023/09/20 05:15:27;;;;;;;;;;;21.60;1.00;;;;;;4896679;29;20391;-49
2023/09/20 05:17:54;;;;;;;;;;;21.60;1.00;;;;;;4892385;29;19927;-51
2023/09/20 05:20:21;;;;;;;;;;;21.60;1.00;;;;;;4900124;29;20203;-53
2023/09/20 05:22:48;;;;;;;;;;;21.60;1.00;;;;;;4900424;29;20029;-53
2023/09/20 05:25:15;;;;;;;;;;;21.60;1.00;;;;;;4899678;29;19962;-52
2023/09/20 05:27:43;;;;;;;;;;;21.60;1.00;;;;;;4899865;29;20466;-53
2023/09/20 05:30:10;;;;;;;;;;;21.60;1.00;;;;;;4896722;29;20058;-50
2023/09/20 05:32:37;;;;;;;;;;;21.60;1.00;;;;;;4914503;29;20390;-50
2023/09/20 05:35:06;;;;;;;;;;;21.60;1.00;;;;;;4916636;29;20013;-50
2023/09/20 05:37:33;;;;;;;;;;;21.60;1.00;;;;;;4916561;29;19940;-50
2023/09/20 05:40:00;;;;;;;;;;;21.60;1.00;;;;;;4916698;29;19927;-49
2023/09/20 05:42:28;;;;;;;;;;;21.60;1.00;;;;;;4916798;29;19927;-53
2023/09/20 05:44:55;;;;;;;;;;;21.60;1.00;;;;;;4916545;29;19983;-52
2023/09/20 05:47:22;;;;;;;;;;;21.60;1.00;;;;;;4916126;29;19935;-50
2023/09/20 05:49:49;;;;;;;;;;;21.60;1.00;;;;;;4916196;29;20008;-49
2023/09/20 05:52:16;;;;;;;;;;;21.60;1.00;;;;;;4916672;29;19983;-50
2023/09/20 05:54:43;;;;;;;;;;;21.60;1.00;;;;;;4916275;29;19935;-50
2023/09/20 05:57:09;;;;;;;;;;;21.60;1.00;;;;;;4916175;29;19927;-49
2023/09/20 05:59:36;;;;;;;;;;;21.60;1.00;;;;;;4916380;29;19969;-50
2023/09/20 06:02:03;;;;;;;;;;;21.60;1.00;;;;;;4904407;29;19927;-50
2023/09/20 06:04:30;;;;;;;;;;;21.60;1.00;;;;;;4897367;29;19928;-49
2023/09/20 06:06:57;;;;;;;;;;;21.60;1.00;;;;;;4908274;29;19934;-51
2023/09/20 06:09:24;;;;;;;;;;;21.60;1.00;;;;;;4916310;29;20490;-49
2023/09/20 06:11:51;;;;;;;;;;;21.60;1.00;;;;;;4916329;29;19939;-52
2023/09/20 06:14:17;;;;;;;;;;;21.60;1.00;;;;;;4915903;29;19973;-53
2023/09/20 06:16:44;;;;;;;;;;;21.60;1.00;;;;;;4915938;29;19961;-49
2023/09/20 06:19:11;;;;;;;;;;;21.60;1.00;;;;;;4916379;29;20033;-50
2023/09/20 06:21:41;;;;;;;;;;;21.60;1.00;;;;;;4915996;29;19983;-49
2023/09/20 06:24:11;;;;;;;;;;;21.60;1.00;;;;;;4916086;29;20025;-49
2023/09/20 06:26:41;;;;;;;;;;;21.60;1.00;;;;;;4915579;29;20022;-50
2023/09/20 06:29:09;;;;;;;;;;;21.60;1.00;;;;;;4916149;29;19927;-50
2023/09/20 06:31:40;;;;;;;;;;;21.60;1.00;;;;;;4915943;29;19927;-54
2023/09/20 06:34:07;;;;;;;;;;;21.60;1.00;;;;;;4916166;29;19927;-49
2023/09/20 06:36:34;;;;;;;;;;;21.60;1.00;;;;;;4915566;29;20021;-50
2023/09/20 06:39:00;;;;;;;;;;;21.60;1.00;;;;;;4915892;29;20221;-50
2023/09/20 06:41:27;;;;;;;;;;;21.60;1.00;;;;;;4915790;29;19927;-51
2023/09/20 06:43:56;;;;;;;;;;;21.60;1.00;;;;;;4915932;29;19942;-53
2023/09/20 06:46:24;;;;;;;;;;;21.60;1.00;;;;;;4915592;29;20280;-49
2023/09/20 06:48:52;;;;;;;;;;;21.60;1.00;;;;;;4915686;29;19938;-51
2023/09/20 06:51:19;;;;;;;;;;;21.60;1.00;;;;;;4915735;29;19990;-50
2023/09/20 06:53:46;;;;;;;;;;;21.60;1.00;;;;;;4915910;29;19927;-49
2023/09/20 06:56:13;;;;;;;;;;;21.60;1.00;;;;;;4915401;29;19934;-50
2023/09/20 06:58:40;;;;;;;;;;;21.60;1.00;;;;;;4914906;29;20014;-51
2023/09/20 07:01:09;;;;;;;;;;;21.70;1.00;;;;;;4896904;29;19927;-49
2023/09/20 07:03:35;;;;;;;;;;;21.60;1.00;;;;;;4896897;29;19928;-50
2023/09/20 07:06:05;;;;;;;;;;;21.60;1.00;;;;;;4896317;29;19928;-51
2023/09/20 07:08:32;;;;;;;;;;;21.70;1.00;;;;;;4896928;29;19932;-52
2023/09/20 07:10:58;;;;;;;;;;;21.70;1.00;;;;;;4880087;29;20268;-50
2023/09/20 07:13:26;;;;;;;;;;;21.60;1.00;;;;;;4896845;29;19927;-54
2023/09/20 07:15:55;;;;;;;;;;;21.70;1.00;;;;;;4896229;29;19928;-49
2023/09/20 07:18:22;;;;;;;;;;;21.70;1.00;;;;;;4896851;29;19934;-50
2023/09/20 07:20:54;;;;;;;;;;;21.70;1.00;;;;;;4896767;29;20105;-50
2023/09/20 07:23:22;;;;;;;;;;;21.70;1.00;;;;;;4896788;29;20407;-49
2023/09/20 07:25:50;;;;;;;;;;;21.70;1.00;;;;;;4898130;29;19967;-50
2023/09/20 07:28:16;;;;;;;;;;;21.70;1.00;;;;;;4916566;29;19965;-49
2023/09/20 07:30:46;;;;;;;;;;;21.70;1.00;;;;;;4918909;29;19934;-54
2023/09/20 07:33:23;;;;;;;;;;;21.70;1.00;;;;;;4919202;29;20276;-50
2023/09/20 07:36:00;;;;;;;;;;;21.70;1.00;;;;;;4918568;29;19927;-50
2023/09/20 07:38:29;;;;;;;;;;;21.60;1.00;;;;;;4919183;29;19931;-49
2023/09/20 07:41:05;;;;;;;;;;;21.70;1.00;;;;;;4918886;29;20276;-54
2023/09/20 07:43:32;;;;;;;;;;;21.70;1.00;;;;;;4918906;29;20431;-50
2023/09/20 07:46:03;;;;;;;;;;;21.70;1.00;;;;;;4918375;29;20323;-51
2023/09/20 07:48:31;;;;;;;;;;;21.70;1.00;;;;;;4918656;29;19927;-49
2023/09/20 07:50:58;;;;;;;;;;;21.70;1.00;;;;;;4918544;29;20306;-50
2023/09/20 07:53:25;;;;;;;;;;;21.70;1.00;;;;;;4918760;29;19974;-49
2023/09/20 07:56:00;;;;;;;;;;;21.70;1.00;;;;;;4918247;29;19935;-53
2023/09/20 07:58:28;;;;;;;;;;;21.70;1.00;;;;;;4918556;29;19931;-50
2023/09/20 08:00:56;;;;;;;;;;;21.70;1.00;;;;;;4918254;29;20484;-49
2023/09/20 08:03:23;;;;;;;;;;;21.70;1.00;;;;;;4918603;29;19931;-50
2023/09/20 08:05:52;;;;;;;;;;;21.70;1.00;;;;;;4917885;29;19933;-49
2023/09/20 08:08:20;;;;;;;;;;;21.70;1.00;;;;;;4918428;29;19927;-49
2023/09/20 08:10:48;;;;;;;;;;;21.70;1.00;;;;;;4918028;29;19953;-49
2023/09/20 08:13:32;;;;;;;;;;;21.70;1.00;;;;;;4918365;29;19938;-49
2023/09/20 08:16:02;;;;;;;;;;;21.70;1.00;;;;;;4917801;29;19955;-49
2023/09/20 08:21:15;;;;;;;;;;;21.70;1.00;;;;;;4917620;29;19927;-53
2023/09/20 08:59:53;;;;;;;;;;;21.70;1.00;;;;;;4917300;29;19927;-51
2023/09/20 09:02:21;;;;;;;;;;;21.70;1.00;;;;;;4917611;29;20455;-49
2023/09/20 09:04:52;;;;;;;;;;;21.70;1.00;;;;;;4917336;29;19934;-49
2023/09/20 09:07:19;;;;;;;;;;;21.70;1.00;;;;;;4916978;29;19931;-49
2023/09/20 09:09:46;;;;;;;;;;;21.70;1.00;;;;;;4917531;29;19927;-50
2023/09/20 09:12:13;;;;;;;;;;;21.70;1.00;;;;;;4917188;29;20453;-53
2023/09/20 09:14:40;;;;;;;;;;;21.70;1.00;;;;;;4917212;29;19927;-50
2023/09/20 09:17:07;;;;;;;;;;;21.70;1.00;;;;;;4916831;29;19927;-51
2023/09/20 09:19:35;;;;;;;;;;;21.70;1.00;;;;;;4917118;29;19931;-52
2023/09/20 09:22:02;;;;;;;;;;;21.70;1.00;;;;;;4916915;29;19962;-52
2023/09/20 09:24:42;;;;;;;;;;;21.70;1.00;;;;;;4917023;29;19931;-51
2023/09/20 09:27:09;;;;;;;;;;;21.70;1.00;;;;;;4916667;29;19927;-49
2023/09/20 09:29:36;;;;;;;;;;;21.70;1.00;;;;;;4916998;29;20021;-49
2023/09/20 09:32:04;;;;;;;;;;;21.70;1.00;;;;;;4916778;29;19935;-49
2023/09/20 09:34:31;;;;;;;;;;;21.70;1.00;;;;;;4916759;29;19928;-50
2023/09/20 09:36:58;;;;;;;;;;;21.70;1.00;;;;;;4916430;29;19975;-54
2023/09/20 09:39:25;;;;;;;;;;;21.70;1.00;;;;;;4916664;29;19962;-50
2023/09/20 09:42:01;;;;;;;;;;;21.70;1.00;;;;;;4916610;29;21221;-51
2023/09/20 09:44:28;;;;;;;;;;;21.70;1.00;;;;;;4916792;29;19927;-49
2023/09/20 09:46:54;;;;;;;;;;;21.70;1.00;;;;;;4916118;29;19927;-51
2023/09/20 09:49:24;;;;;;;;;;;21.70;1.00;;;;;;4916218;29;19955;-49
2023/09/20 09:51:51;;;;;;;;;;;21.70;1.00;;;;;;4916397;29;19936;-51
2023/09/20 09:54:19;;;;;;;;;;;21.70;1.00;;;;;;4916604;29;19927;-52
2023/09/20 09:56:46;;;;;;;;;;;21.80;1.00;;;;;;4915896;29;19938;-50
2023/09/20 09:59:13;;;;;;;;;;;21.80;1.00;;;;;;4916613;29;19934;-50
2023/09/20 10:01:40;;;;;;;;;;;21.70;1.00;;;;;;4916332;29;19975;-49
2023/09/20 10:04:13;;;;;;;;;;;21.70;1.00;;;;;;4916682;29;19927;-48
2023/09/20 10:07:02;;;;;;;;;;;21.80;1.00;;;;;;4915944;29;19946;-49
2023/09/20 10:09:35;;;;;;;;;;;21.80;1.00;;;;;;4916822;29;20351;-49
2023/09/20 10:12:03;;;;;;;;;;;21.80;1.00;;;;;;4916126;29;20034;-54
2023/09/20 10:14:30;;;;;;;;;;;21.70;1.00;;;;;;4916164;29;19927;-51
2023/09/20 10:17:01;;;;;;;;;;;21.80;1.00;;;;;;4915821;29;19938;-49
2023/09/20 10:19:28;;;;;;;;;;;21.70;1.00;;;;;;4916264;29;19927;-50
2023/09/20 10:22:13;;;;;;;;;;;21.80;1.00;;;;;;4916168;29;19982;-52
2023/09/20 10:24:53;;;;;;;;;;;21.80;1.00;;;;;;4916217;29;20304;-50
2023/09/20 10:27:21;;;;;;;;;;;21.80;1.00;;;;;;4915799;29;19930;-50
2023/09/20 10:30:02;;;;;;;;;;;21.80;1.00;;;;;;4915927;29;20033;-52
2023/09/20 10:32:31;;;;;;;;;;;21.80;1.00;;;;;;4916079;29;19927;-49
2023/09/20 10:35:20;;;;;;;;;;;21.80;1.00;;;;;;4915890;29;19963;-50
2023/09/20 10:37:56;;;;;;;;;;;21.80;1.00;;;;;;4915871;29;19931;-50
2023/09/20 10:40:23;;;;;;;;;;;21.80;1.00;;;;;;4915879;29;19934;-50
2023/09/20 10:42:51;;;;;;;;;;;21.80;1.00;;;;;;4915930;29;20014;-54
2023/09/20 10:45:17;;;;;;;;;;;21.80;1.00;;;;;;4915550;29;19950;-54
2023/09/20 10:47:48;;;;;;;;;;;21.80;1.00;;;;;;4915834;29;19927;-54
2023/09/20 10:50:35;;;;;;;;;;;21.80;1.00;;;;;;4915683;29;20479;-51
2023/09/20 10:53:02;;;;;;;;;;;21.80;1.00;;;;;;4915738;29;20294;-51
2023/09/20 10:55:35;;;;;;;;;;;21.80;1.00;;;;;;4915394;29;20420;-51
2023/09/20 10:58:02;;;;;;;;;;;21.80;1.00;;;;;;4914499;29;20361;-54
2023/09/20 11:00:34;;;;;;;;;;;21.80;1.00;;;;;;4917387;29;20021;-52
2023/09/20 11:03:07;;;;;;;;;;;21.80;1.00;;;;;;4919862;29;20315;-55
2023/09/20 11:05:35;;;;;;;;;;;21.80;1.00;;;;;;4918971;29;19927;-52
2023/09/20 11:08:10;;;;;;;;;;;21.80;1.00;;;;;;4919378;29;20391;-54
2023/09/20 11:10:43;;;;;;;;;;;21.80;1.00;;;;;;4919310;29;19975;-50
2023/09/20 11:13:14;;;;;;;;;;;21.80;1.00;;;;;;4919317;29;19927;-49
2023/09/20 11:15:43;;;;;;;;;;;21.80;1.00;;;;;;4919091;29;19970;-50
2023/09/20 11:18:14;;;;;;;;;;;21.80;1.00;;;;;;4919273;29;20002;-52
2023/09/20 11:20:41;;;;;;;;;;;21.80;1.00;;;;;;4919306;29;20479;-51
2023/09/20 11:23:09;;;;;;;;;;;21.80;1.00;;;;;;4919126;29;19932;-54
2023/09/20 11:25:36;;;;;;;;;;;21.80;1.00;;;;;;4918741;29;19934;-49
2023/09/20 11:28:07;;;;;;;;;;;21.80;1.00;;;;;;4919129;29;19927;-54
2023/09/20 11:30:34;;;;;;;;;;;21.80;1.00;;;;;;4919240;29;19965;-56
2023/09/20 11:33:02;;;;;;;;;;;21.80;1.00;;;;;;4919044;29;19933;-50
2023/09/20 11:35:38;;;;;;;;;;;21.80;1.00;;;;;;4918815;29;19936;-51
2023/09/20 11:38:07;;;;;;;;;;;21.80;1.00;;;;;;4918878;29;20092;-52
2023/09/20 11:40:37;;;;;;;;;;;21.80;1.00;;;;;;4919029;29;19930;-50
2023/09/20 11:43:05;;;;;;;;;;;21.80;1.00;;;;;;4918707;29;20415;-52
2023/09/20 11:45:41;;;;;;;;;;;21.80;1.00;;;;;;4918330;29;20000;-51
2023/09/20 11:48:27;;;;;;;;;;;21.80;1.00;;;;;;4918738;29;19939;-55
2023/09/20 11:50:54;;;;;;;;;;;21.80;1.00;;;;;;4918505;29;19983;-50
2023/09/20 11:53:22;;;;;;;;;;;21.80;1.00;;;;;;4918741;29;19935;-51
2023/09/20 11:55:49;;;;;;;;;;;21.80;1.00;;;;;;4918746;29;20014;-51
2023/09/20 11:58:19;;;;;;;;;;;21.80;1.00;;;;;;4911397;29;20327;-54
2023/09/20 12:00:46;;;;;;;;;;;21.80;1.00;;;;;;4918624;29;19935;-50
2023/09/20 12:03:13;;;;;;;;;;;21.80;1.00;;;;;;4918481;29;19975;-54
2023/09/20 12:05:40;;;;;;;;;;;21.80;1.00;;;;;;4917895;29;19931;-51
2023/09/20 12:08:09;;;;;;;;;;;21.80;1.00;;;;;;4918432;29;20426;-53
2023/09/20 12:10:36;;;;;;;;;;;21.90;1.00;;;;;;4917928;29;19927;-51
2023/09/20 12:13:03;;;;;;;;;;;21.80;1.00;;;;;;4918271;29;20034;-50
2023/09/20 12:15:32;;;;;;;;;;;21.80;1.00;;;;;;4918012;29;20017;-50
2023/09/20 12:18:00;;;;;;;;;;;21.90;1.00;;;;;;4918248;29;19927;-50
2023/09/20 12:20:27;;;;;;;;;;;21.90;1.00;;;;;;4918233;29;19994;-50
2023/09/20 12:23:01;;;;;;;;;;;21.80;1.00;;;;;;4918266;29;19928;-49
2023/09/20 12:25:30;;;;;;;;;;;21.90;1.00;;;;;;4918012;29;19928;-51
2023/09/20 12:27:57;;;;;;;;;;;21.90;1.00;;;;;;4918040;29;20347;-50
2023/09/20 12:30:27;;;;;;;;;;;21.90;1.00;;;;;;4917997;29;19927;-54
2023/09/20 12:32:56;;;;;;;;;;;21.90;1.00;;;;;;4917961;29;20311;-53
2023/09/20 12:35:23;;;;;;;;;;;21.90;1.00;;;;;;4917581;29;19991;-49
2023/09/20 12:37:51;;;;;;;;;;;21.90;1.00;;;;;;4917967;29;19931;-49
2023/09/20 12:40:21;;;;;;;;;;;21.90;1.00;;;;;;4909866;29;20442;-51
2023/09/20 12:42:48;;;;;;;;;;;21.90;1.00;;;;;;4917854;29;19928;-50
2023/09/20 12:45:15;;;;;;;;;;;21.90;1.00;;;;;;4917429;29;19934;-49
2023/09/20 12:47:42;;;;;;;;;;;21.90;1.00;;;;;;4917752;29;20438;-49
2023/09/20 12:50:12;;;;;;;;;;;21.80;1.00;;;;;;4917547;29;20439;-51
2023/09/20 12:52:42;;;;;;;;;;;21.90;1.00;;;;;;4917583;29;19927;-51
2023/09/20 12:55:10;;;;;;;;;;;21.90;1.00;;;;;;4917085;29;20069;-51
2023/09/20 12:57:38;;;;;;;;;;;21.90;1.00;;;;;;4917525;29;19927;-49
2023/09/20 13:00:08;;;;;;;;;;;21.90;1.00;;;;;;4917353;29;19934;-53
2023/09/20 13:02:35;;;;;;;;;;;21.90;1.00;;;;;;4917589;29;19927;-52
2023/09/20 13:05:02;;;;;;;;;;;21.90;1.00;;;;;;4917065;29;19967;-49
2023/09/20 13:07:29;;;;;;;;;;;21.90;1.00;;;;;;4917145;29;19931;-53
2023/09/20 13:09:59;;;;;;;;;;;21.90;1.00;;;;;;4917332;29;19927;-54
2023/09/20 13:12:25;;;;;;;;;;;21.90;1.00;;;;;;4917361;29;19974;-52
2023/09/20 13:14:52;;;;;;;;;;;21.90;1.00;;;;;;4917353;29;20000;-49
2023/09/20 13:17:20;;;;;;;;;;;21.90;1.00;;;;;;4916584;29;20021;-53
2023/09/20 13:19:47;;;;;;;;;;;21.90;1.00;;;;;;4917079;29;19931;-50
2023/09/20 13:22:14;;;;;;;;;;;21.90;1.00;;;;;;4916487;29;19927;-52
2023/09/20 13:24:42;;;;;;;;;;;21.90;1.00;;;;;;4916826;29;19927;-49
2023/09/20 13:27:09;;;;;;;;;;;21.90;1.00;;;;;;4916483;29;20366;-54
2023/09/20 13:29:36;;;;;;;;;;;22.00;1.00;;;;;;4916941;29;19927;-50
2023/09/20 13:32:03;;;;;;;;;;;21.90;1.00;;;;;;4916758;29;20026;-49
2023/09/20 13:34:30;;;;;;;;;;;21.90;1.00;;;;;;4916925;29;19927;-51
2023/09/20 13:36:57;;;;;;;;;;;22.00;1.00;;;;;;4908431;29;20023;-49
2023/09/20 13:39:24;;;;;;;;;;;22.00;1.00;;;;;;4901087;29;19934;-52
2023/09/20 13:41:53;;;;;;;;;;;22.00;1.00;;;;;;4902149;29;19928;-50
2023/09/20 13:44:20;;;;;;;;;;;22.00;1.00;;;;;;4908265;29;19931;-54
2023/09/20 13:46:47;;;;;;;;;;;22.00;1.00;;;;;;4910259;29;19938;-50
2023/09/20 13:49:15;;;;;;;;;;;22.00;1.00;;;;;;4921165;29;19934;-50
2023/09/20 13:51:43;;;;;;;;;;;22.00;1.00;;;;;;4912187;29;19942;-49
2023/09/20 13:54:10;;;;;;;;;;;22.00;1.00;;;;;;4907088;29;19931;-52
2023/09/20 13:56:40;;;;;;;;;;;22.00;1.00;;;;;;4900623;29;19939;-54
2023/09/20 13:59:07;;;;;;;;;;;22.00;1.00;;;;;;4913579;29;20334;-49
2023/09/20 14:01:37;;;;;;;;;;;22.00;1.00;;;;;;4911830;29;19927;-50
2023/09/20 14:04:04;;;;;;;;;;;22.00;1.00;;;;;;4913443;29;20018;-55
2023/09/20 14:06:31;;;;;;;;;;;22.00;1.00;;;;;;4914281;29;19963;-54
2023/09/20 14:08:58;;;;;;;;;;;22.00;1.00;;;;;;4903960;29;19954;-55
2023/09/20 14:11:24;;;;;;;;;;;22.00;1.00;;;;;;4905193;29;19934;-54
2023/09/20 14:13:51;;;;;;;;;;;22.00;1.00;;;;;;4897829;29;19928;-49
2023/09/20 14:16:18;;;;;;;;;;;22.00;1.00;;;;;;4900327;29;19927;-50
2023/09/20 14:18:45;;;;;;;;;;;22.00;1.00;;;;;;4904490;29;19928;-50
2023/09/20 14:21:14;;;;;;;;;;;22.00;1.00;;;;;;4905065;29;20368;-51
2023/09/20 14:23:41;;;;;;;;;;;22.00;1.00;;;;;;4912004;29;19927;-51
2023/09/20 14:26:11;;;;;;;;;;;22.00;1.00;;;;;;4905456;29;19927;-51
2023/09/20 14:28:40;;;;;;;;;;;22.00;1.00;;;;;;4905886;29;19983;-53
2023/09/20 14:31:17;;;;;;;;;;;22.10;1.00;;;;;;4904635;29;19931;-54
2023/09/20 14:33:45;;;;;;;;;;;22.10;1.00;;;;;;4896829;29;19928;-51
2023/09/20 14:36:12;;;;;;;;;;;22.10;1.00;;;;;;4901549;29;19965;-50
2023/09/20 14:38:39;;;;;;;;;;;22.10;1.00;;;;;;4906788;29;19928;-54
2023/09/20 14:41:06;;;;;;;;;;;22.10;1.00;;;;;;4905072;29;19931;-55
2023/09/20 14:43:34;;;;;;;;;;;22.10;1.00;;;;;;4897053;29;19943;-53
2023/09/20 14:46:05;;;;;;;;;;;22.10;1.00;;;;;;4906575;29;19981;-50
2023/09/20 14:48:32;;;;;;;;;;;22.10;1.00;;;;;;4909191;29;19983;-50
2023/09/20 14:51:01;;;;;;;;;;;22.10;1.00;;;;;;4914289;29;20450;-52
2023/09/20 14:53:28;;;;;;;;;;;22.10;1.00;;;;;;4913016;29;19928;-50
2023/09/20 14:55:55;;;;;;;;;;;22.10;1.00;;;;;;4912071;29;19927;-53
2023/09/20 14:58:24;;;;;;;;;;;22.10;1.00;;;;;;4917902;29;20393;-52
2023/09/20 15:00:50;;;;;;;;;;;22.10;1.00;;;;;;4900501;29;19977;-51
2023/09/20 15:03:17;;;;;;;;;;;22.10;1.00;;;;;;4907417;29;19931;-53
2023/09/20 15:05:45;;;;;;;;;;;22.10;1.00;;;;;;4898525;29;19983;-53
2023/09/20 15:08:12;;;;;;;;;;;22.10;1.00;;;;;;4912828;29;20022;-55
2023/09/20 15:10:41;;;;;;;;;;;22.10;1.00;;;;;;4903633;29;19970;-53
2023/09/20 15:13:07;;;;;;;;;;;22.10;1.00;;;;;;4912248;29;20272;-54
2023/09/20 15:15:34;;;;;;;;;;;22.10;1.00;;;;;;4915105;29;19934;-55
2023/09/20 15:18:02;;;;;;;;;;;22.10;1.00;;;;;;4915820;29;19982;-56